createdAt,value
2022-10-09T00:01:13.939Z,9.50
2022-10-09T00:03:44.858Z,9.50
2022-10-09T00:06:16.410Z,9.40
2022-10-09T00:08:44.860Z,9.30
2022-10-09T00:11:14.555Z,9.30
2022-10-09T00:13:44.258Z,9.20
2022-10-09T00:16:14.160Z,9.10
2022-10-09T00:18:43.218Z,9.10
2022-10-09T00:21:20.041Z,9.00
2022-10-09T00:23:48.526Z,8.90
2022-10-09T00:26:17.086Z,8.90
2022-10-09T00:28:47.254Z,8.90
2022-10-09T00:31:16.351Z,9.00
2022-10-09T00:33:44.881Z,9.00
2022-10-09T00:36:15.270Z,9.10
2022-10-09T00:38:43.393Z,9.00
2022-10-09T00:41:15.933Z,8.80
2022-10-09T00:43:48.445Z,8.60
2022-10-09T00:46:34.579Z,8.50
2022-10-09T00:49:14.503Z,8.40
2022-10-09T00:51:43.519Z,8.30
2022-10-09T00:54:14.966Z,8.20
2022-10-09T00:56:43.538Z,8.20
2022-10-09T00:59:14.006Z,8.20
2022-10-09T01:01:42.724Z,8.10
2022-10-09T01:04:10.986Z,8.00
2022-10-09T01:06:51.067Z,8.00
2022-10-09T01:09:21.411Z,8.10
2022-10-09T01:11:57.071Z,8.20
2022-10-09T01:14:30.732Z,8.20
2022-10-09T01:17:06.631Z,8.20
2022-10-09T01:19:51.123Z,8.10
2022-10-09T01:22:34.030Z,7.90
2022-10-09T01:25:07.460Z,7.70
2022-10-09T01:27:38.659Z,7.60
2022-10-09T01:30:09.717Z,7.50
2022-10-09T01:32:40.648Z,7.40
2022-10-09T01:35:12.268Z,7.40
2022-10-09T01:37:43.644Z,7.40
2022-10-09T01:40:13.706Z,7.50
2022-10-09T01:42:43.162Z,7.50
2022-10-09T01:45:13.294Z,7.50
2022-10-09T01:47:41.595Z,7.50
2022-10-09T01:50:16.897Z,7.40
2022-10-09T01:52:49.312Z,7.30
2022-10-09T01:55:39.577Z,7.20
2022-10-09T01:58:15.798Z,7.20
2022-10-09T02:00:49.360Z,7.20
2022-10-09T02:03:18.263Z,7.20
2022-10-09T02:05:49.457Z,7.20
2022-10-09T02:08:20.362Z,7.20
2022-10-09T02:10:51.803Z,7.10
2022-10-09T02:13:22.084Z,7.10
2022-10-09T02:16:01.307Z,7.10
2022-10-09T02:18:36.693Z,7.00
2022-10-09T02:21:12.002Z,7.00
2022-10-09T02:23:42.600Z,6.90
2022-10-09T02:26:14.470Z,6.80
2022-10-09T02:28:46.149Z,6.80
2022-10-09T02:31:20.996Z,6.90
2022-10-09T02:33:56.075Z,6.80
2022-10-09T02:36:24.335Z,6.80
2022-10-09T02:38:52.363Z,6.70
2022-10-09T02:41:20.274Z,6.60
2022-10-09T02:43:49.728Z,6.60
2022-10-09T02:46:18.027Z,6.60
2022-10-09T02:48:46.314Z,6.60
2022-10-09T02:51:14.339Z,6.50
2022-10-09T02:53:42.358Z,6.50
2022-10-09T02:56:10.670Z,6.40
2022-10-09T02:58:39.605Z,6.30
2022-10-09T03:01:09.060Z,6.30
2022-10-09T03:03:37.196Z,6.30
2022-10-09T03:06:09.438Z,6.30
2022-10-09T03:08:37.732Z,6.10
2022-10-09T03:11:07.153Z,5.90
2022-10-09T03:13:35.105Z,5.90
2022-10-09T03:16:08.904Z,5.90
2022-10-09T03:18:37.507Z,5.80
2022-10-09T03:21:07.654Z,5.70
2022-10-09T03:23:36.087Z,5.70
2022-10-09T03:26:07.123Z,5.60
2022-10-09T03:28:37.024Z,5.60
2022-10-09T03:31:05.348Z,5.60
2022-10-09T03:33:35.023Z,5.60
2022-10-09T03:36:03.543Z,5.50
2022-10-09T03:38:31.551Z,5.40
2022-10-09T03:40:59.967Z,5.30
2022-10-09T03:43:28.837Z,5.40
2022-10-09T03:46:00.894Z,5.30
2022-10-09T03:48:29.075Z,5.30
2022-10-09T03:50:58.423Z,5.30
2022-10-09T03:53:26.463Z,5.20
2022-10-09T03:55:54.424Z,5.00
2022-10-09T03:58:22.389Z,5.00
2022-10-09T04:00:52.178Z,4.90
2022-10-09T04:03:20.843Z,4.90
2022-10-09T04:05:49.229Z,4.90
2022-10-09T04:08:18.633Z,4.80
2022-10-09T04:10:46.592Z,4.90
2022-10-09T04:13:14.529Z,4.90
2022-10-09T04:15:51.404Z,4.80
2022-10-09T04:18:19.983Z,4.70
2022-10-09T04:20:51.185Z,4.70
2022-10-09T04:23:21.583Z,4.70
2022-10-09T04:25:49.615Z,4.80
2022-10-09T04:28:17.863Z,4.80
2022-10-09T04:30:45.836Z,4.80
2022-10-09T04:33:13.822Z,4.80
2022-10-09T04:35:43.345Z,4.50
2022-10-09T04:38:11.501Z,4.40
2022-10-09T04:40:40.873Z,4.30
2022-10-09T04:43:09.412Z,4.20
2022-10-09T04:45:40.804Z,4.20
2022-10-09T04:48:08.801Z,4.20
2022-10-09T04:50:39.807Z,4.20
2022-10-09T04:53:09.365Z,4.30
2022-10-09T04:55:41.531Z,4.10
2022-10-09T04:58:09.494Z,4.10
2022-10-09T05:00:42.186Z,4.20
2022-10-09T05:03:10.968Z,4.00
2022-10-09T05:05:39.106Z,4.10
2022-10-09T05:08:07.136Z,4.00
2022-10-09T05:10:35.142Z,4.00
2022-10-09T05:13:04.646Z,4.10
2022-10-09T05:15:32.767Z,3.90
2022-10-09T05:18:00.805Z,3.80
2022-10-09T05:20:28.778Z,3.80
2022-10-09T05:22:56.804Z,3.90
2022-10-09T05:25:24.896Z,3.80
2022-10-09T05:27:53.331Z,3.80
2022-10-09T05:30:22.661Z,3.90
2022-10-09T05:32:50.872Z,4.00
2022-10-09T05:35:19.226Z,4.00
2022-10-09T05:37:47.616Z,3.80
2022-10-09T05:40:15.693Z,3.80
2022-10-09T05:42:43.650Z,3.80
2022-10-09T05:45:12.181Z,3.80
2022-10-09T05:47:41.633Z,3.80
2022-10-09T05:50:10.571Z,3.80
2022-10-09T05:52:39.951Z,3.80
2022-10-09T05:55:08.635Z,3.90
2022-10-09T05:57:36.591Z,4.00
2022-10-09T06:00:05.808Z,4.10
2022-10-09T06:02:33.825Z,4.30
2022-10-09T06:05:03.214Z,4.30
2022-10-09T06:07:32.092Z,4.40
2022-10-09T06:10:00.140Z,4.40
2022-10-09T06:12:28.231Z,4.30
2022-10-09T06:14:56.467Z,4.40
2022-10-09T06:17:24.536Z,4.50
2022-10-09T06:19:52.443Z,4.40
2022-10-09T06:22:21.864Z,4.70
2022-10-09T06:24:49.833Z,4.90
2022-10-09T06:27:17.963Z,5.10
2022-10-09T06:29:45.996Z,5.30
2022-10-09T06:32:13.966Z,5.40
2022-10-09T06:34:42.002Z,5.60
2022-10-09T06:37:09.946Z,5.90
2022-10-09T06:39:39.320Z,6.10
2022-10-09T06:42:07.303Z,6.00
2022-10-09T06:44:35.254Z,6.40
2022-10-09T06:47:03.297Z,6.60
2022-10-09T06:49:31.295Z,6.80
2022-10-09T06:51:59.260Z,7.00
2022-10-09T06:54:27.193Z,7.30
2022-10-09T06:56:56.608Z,7.50
2022-10-09T06:59:24.587Z,7.50
2022-10-09T07:01:52.617Z,7.70
2022-10-09T07:04:21.580Z,7.60
2022-10-09T07:06:49.538Z,7.70
2022-10-09T07:09:17.702Z,7.90
2022-10-09T07:11:46.819Z,8.00
2022-10-09T07:14:16.857Z,8.00
2022-10-09T07:16:46.932Z,7.90
2022-10-09T07:19:15.877Z,7.90
2022-10-09T07:21:45.856Z,8.00
2022-10-09T07:24:14.637Z,8.00
2022-10-09T07:26:45.334Z,8.20
2022-10-09T07:29:16.744Z,8.30
2022-10-09T07:31:44.934Z,8.40
2022-10-09T07:34:12.880Z,8.50
2022-10-09T07:36:40.889Z,8.70
2022-10-09T07:39:09.167Z,8.90
2022-10-09T07:41:37.403Z,9.10
2022-10-09T07:44:05.470Z,9.20
2022-10-09T07:46:35.023Z,9.30
2022-10-09T07:49:03.443Z,9.50
2022-10-09T07:51:32.618Z,9.60
2022-10-09T07:54:01.897Z,9.70
2022-10-09T07:56:32.614Z,9.90
2022-10-09T07:59:02.369Z,10.10
2022-10-09T08:01:32.068Z,10.00
2022-10-09T08:04:02.147Z,10.00
2022-10-09T08:06:30.531Z,10.30
2022-10-09T08:09:00.043Z,10.30
2022-10-09T08:11:29.476Z,10.10
2022-10-09T08:13:58.051Z,10.20
2022-10-09T08:16:27.150Z,10.30
2022-10-09T08:18:56.787Z,10.40
2022-10-09T08:21:27.876Z,10.40
2022-10-09T08:23:57.507Z,10.50
2022-10-09T08:26:27.190Z,10.90
2022-10-09T08:28:57.096Z,11.20
2022-10-09T08:31:25.821Z,11.30
2022-10-09T08:33:54.748Z,11.30
2022-10-09T08:36:22.934Z,11.20
2022-10-09T08:38:52.411Z,11.10
2022-10-09T08:41:28.827Z,11.00
2022-10-09T08:44:02.162Z,11.00
2022-10-09T08:46:35.959Z,11.10
2022-10-09T08:49:06.275Z,11.30
2022-10-09T08:51:39.191Z,11.40
2022-10-09T08:54:19.892Z,11.40
2022-10-09T08:56:50.829Z,11.50
2022-10-09T08:59:18.932Z,11.40
2022-10-09T09:01:57.067Z,11.60
2022-10-09T09:04:54.607Z,11.60
2022-10-09T09:07:32.739Z,11.70
2022-10-09T09:10:11.846Z,12.10
2022-10-09T09:12:49.991Z,12.30
2022-10-09T09:15:39.912Z,12.50
2022-10-09T09:18:21.401Z,12.40
2022-10-09T09:20:54.024Z,12.40
2022-10-09T09:23:26.838Z,12.50
2022-10-09T09:25:56.995Z,12.50
2022-10-09T09:28:29.621Z,13.20
2022-10-09T09:31:02.549Z,13.60
2022-10-09T09:33:43.639Z,14.10
2022-10-09T09:36:21.751Z,14.20
2022-10-09T09:39:26.062Z,13.50
2022-10-09T09:41:42.074Z,13.80
2022-10-09T09:44:12.287Z,14.10
2022-10-09T09:46:41.121Z,13.80
2022-10-09T09:49:17.001Z,13.90
2022-10-09T09:51:45.128Z,13.60
2022-10-09T09:54:19.526Z,13.50
2022-10-09T09:59:40.042Z,13.20
2022-10-09T10:02:14.561Z,13.20
2022-10-09T10:04:51.341Z,13.40
2022-10-09T10:07:29.694Z,13.50
2022-10-09T10:10:09.362Z,13.50
2022-10-09T10:12:43.596Z,13.70
2022-10-09T10:15:22.171Z,13.50
2022-10-09T10:17:58.379Z,13.60
2022-10-09T10:20:28.532Z,14.00
2022-10-09T10:22:58.736Z,14.00
2022-10-09T10:25:31.799Z,14.20
2022-10-09T10:28:07.003Z,14.20
2022-10-09T10:30:36.931Z,14.20
2022-10-09T10:33:15.633Z,14.20
2022-10-09T10:35:51.380Z,13.80
2022-10-09T10:38:25.055Z,13.40
2022-10-09T10:40:57.905Z,13.40
2022-10-09T10:43:37.288Z,13.70
2022-10-09T10:46:14.216Z,13.90
2022-10-09T10:48:46.599Z,14.00
2022-10-09T10:51:37.607Z,14.00
2022-10-09T10:54:17.794Z,14.30
2022-10-09T10:56:49.851Z,14.50
2022-10-09T10:59:31.122Z,14.30
2022-10-09T11:02:32.530Z,14.30
2022-10-09T11:05:12.056Z,14.10
2022-10-09T11:07:48.254Z,14.20
2022-10-09T11:10:23.227Z,14.40
2022-10-09T11:12:56.884Z,14.60
2022-10-09T11:15:37.400Z,14.50
2022-10-09T11:18:19.530Z,14.80
2022-10-09T11:21:09.128Z,15.00
2022-10-09T11:23:55.650Z,14.80
2022-10-09T11:26:30.199Z,15.00
2022-10-09T11:29:03.223Z,14.70
2022-10-09T11:31:37.897Z,14.90
2022-10-09T11:34:11.506Z,14.80
2022-10-09T11:36:42.579Z,14.90
2022-10-09T11:39:15.962Z,15.00
2022-10-09T11:41:46.808Z,15.00
2022-10-09T11:44:51.531Z,15.00
2022-10-09T11:47:30.898Z,15.00
2022-10-09T11:50:11.836Z,15.00
2022-10-09T11:52:48.848Z,14.90
2022-10-09T11:55:20.369Z,14.60
2022-10-09T11:57:48.852Z,14.60
2022-10-09T12:00:18.105Z,14.60
2022-10-09T12:02:59.034Z,14.60
2022-10-09T12:05:36.878Z,14.50
2022-10-09T12:08:12.955Z,14.40
2022-10-09T12:10:50.799Z,14.30
2022-10-09T12:13:43.410Z,13.50
2022-10-09T12:16:27.995Z,13.70
2022-10-09T12:18:59.219Z,13.70
2022-10-09T12:21:31.901Z,13.70
2022-10-09T12:24:00.738Z,13.90
2022-10-09T12:26:29.772Z,14.00
2022-10-09T12:29:01.760Z,13.50
2022-10-09T12:31:34.383Z,13.00
2022-10-09T12:34:07.252Z,12.90
2022-10-09T12:36:35.215Z,13.10
2022-10-09T12:39:16.465Z,13.10
2022-10-09T12:42:26.557Z,13.30
2022-10-09T12:44:56.581Z,13.40
2022-10-09T12:47:27.503Z,13.40
2022-10-09T12:49:59.293Z,13.40
2022-10-09T12:52:28.034Z,13.50
2022-10-09T12:54:56.248Z,13.50
2022-10-09T12:57:27.868Z,13.20
2022-10-09T12:59:56.800Z,12.90
2022-10-09T13:02:25.047Z,13.00
2022-10-09T13:05:00.079Z,13.00
2022-10-09T13:07:30.202Z,13.00
2022-10-09T13:10:01.860Z,13.00
2022-10-09T13:12:31.306Z,12.90
2022-10-09T13:15:00.537Z,13.00
2022-10-09T13:20:04.000Z,13.20
2022-10-09T13:22:33.656Z,13.20
2022-10-09T13:25:03.104Z,13.30
2022-10-09T13:27:33.739Z,13.30
2022-10-09T13:30:02.365Z,13.30
2022-10-09T13:32:30.926Z,13.30
2022-10-09T13:34:58.875Z,13.20
2022-10-09T13:37:28.827Z,13.30
2022-10-09T13:39:59.430Z,13.30
2022-10-09T13:42:29.459Z,13.40
2022-10-09T13:44:57.530Z,13.30
2022-10-09T13:47:25.805Z,13.40
2022-10-09T13:49:53.720Z,13.40
2022-10-09T13:52:22.115Z,13.20
2022-10-09T13:54:51.488Z,13.20
2022-10-09T13:57:19.536Z,13.00
2022-10-09T13:59:47.525Z,12.90
2022-10-09T14:02:15.511Z,13.00
2022-10-09T14:04:44.328Z,12.70
2022-10-09T14:07:12.677Z,12.70
2022-10-09T14:09:40.809Z,12.80
2022-10-09T14:12:10.317Z,12.70
2022-10-09T14:14:38.356Z,12.80
2022-10-09T14:17:06.456Z,12.90
2022-10-09T14:19:34.436Z,12.80
2022-10-09T14:22:02.379Z,12.70
2022-10-09T14:24:30.306Z,12.70
2022-10-09T14:26:58.307Z,12.80
2022-10-09T14:29:27.676Z,12.80
2022-10-09T14:31:55.654Z,12.80
2022-10-09T14:34:23.910Z,13.10
2022-10-09T14:36:52.356Z,13.10
2022-10-09T14:39:20.591Z,12.70
2022-10-09T14:41:48.860Z,12.70
2022-10-09T14:44:16.857Z,12.90
2022-10-09T14:46:46.622Z,13.10
2022-10-09T14:49:14.550Z,13.10
2022-10-09T14:51:42.725Z,13.10
2022-10-09T14:54:12.576Z,13.10
2022-10-09T14:56:41.057Z,13.10
2022-10-09T14:59:09.284Z,12.80
2022-10-09T15:01:37.476Z,12.60
2022-10-09T15:04:07.416Z,12.50
2022-10-09T15:06:35.698Z,12.60
2022-10-09T15:09:06.232Z,12.60
2022-10-09T15:11:35.882Z,12.70
2022-10-09T15:14:04.909Z,12.80
2022-10-09T15:16:33.857Z,12.80
2022-10-09T15:19:02.402Z,12.80
2022-10-09T15:21:34.467Z,12.80
2022-10-09T15:24:03.869Z,12.70
2022-10-09T15:26:33.810Z,12.60
2022-10-09T15:29:03.277Z,12.50
2022-10-09T15:31:33.079Z,12.50
2022-10-09T15:34:02.159Z,12.60
2022-10-09T15:36:34.684Z,12.70
2022-10-09T15:39:05.914Z,12.70
2022-10-09T15:41:35.915Z,12.70
2022-10-09T15:44:06.504Z,12.60
2022-10-09T15:46:35.023Z,12.30
2022-10-09T15:49:03.008Z,12.20
2022-10-09T15:51:33.232Z,12.10
2022-10-09T15:54:02.257Z,12.10
2022-10-09T15:56:33.821Z,12.00
2022-10-09T15:59:04.007Z,12.00
2022-10-09T16:01:36.690Z,12.10
2022-10-09T16:04:04.714Z,12.00
2022-10-09T16:06:34.120Z,12.00
2022-10-09T16:09:03.894Z,12.00
2022-10-09T16:11:32.214Z,12.00
2022-10-09T16:14:00.459Z,11.80
2022-10-09T16:16:28.635Z,11.70
2022-10-09T16:18:57.226Z,11.60
2022-10-09T16:21:29.552Z,11.60
2022-10-09T16:23:59.743Z,11.50
2022-10-09T16:26:30.577Z,11.50
2022-10-09T16:29:00.807Z,11.30
2022-10-09T16:31:31.169Z,11.30
2022-10-09T16:33:59.608Z,11.10
2022-10-09T16:36:28.617Z,10.90
2022-10-09T16:38:59.419Z,10.80
2022-10-09T16:41:27.452Z,10.60
2022-10-09T16:43:57.202Z,10.60
2022-10-09T16:46:28.697Z,10.40
2022-10-09T16:48:58.032Z,10.30
2022-10-09T16:51:29.179Z,10.20
2022-10-09T16:54:01.470Z,10.20
2022-10-09T16:56:33.045Z,10.00
2022-10-09T16:59:03.125Z,9.70
2022-10-09T17:01:32.250Z,9.60
2022-10-09T17:04:01.248Z,9.50
2022-10-09T17:06:29.441Z,9.60
2022-10-09T17:09:00.866Z,9.60
2022-10-09T17:11:31.154Z,9.60
2022-10-09T17:13:59.941Z,9.70
2022-10-09T17:16:30.063Z,9.70
2022-10-09T17:18:59.511Z,9.50
2022-10-09T17:21:31.131Z,9.40
2022-10-09T17:24:05.305Z,9.20
2022-10-09T17:26:34.402Z,9.00
2022-10-09T17:29:04.211Z,9.10
2022-10-09T17:31:33.092Z,9.00
2022-10-09T17:34:03.181Z,8.80
2022-10-09T17:36:33.924Z,8.70
2022-10-09T17:39:04.111Z,8.50
2022-10-09T17:41:32.644Z,8.10
2022-10-09T17:44:02.098Z,8.20
2022-10-09T17:46:30.727Z,8.20
2022-10-09T17:49:00.027Z,8.20
2022-10-09T17:51:30.429Z,8.10
2022-10-09T17:54:00.826Z,8.10
2022-10-09T17:56:31.484Z,8.10
2022-10-09T17:59:00.201Z,7.70
2022-10-09T18:01:29.226Z,7.60
2022-10-09T18:03:57.739Z,7.50
2022-10-09T18:06:26.468Z,7.40
2022-10-09T18:08:57.892Z,7.40
2022-10-09T18:11:27.221Z,7.30
2022-10-09T18:13:57.032Z,7.30
2022-10-09T18:16:35.202Z,7.10
2022-10-09T18:19:06.839Z,7.20
2022-10-09T18:21:35.643Z,7.20
2022-10-09T18:24:03.827Z,7.20
2022-10-09T18:26:31.799Z,7.20
2022-10-09T18:29:02.088Z,7.30
2022-10-09T18:31:31.093Z,7.20
2022-10-09T18:34:00.021Z,7.10
2022-10-09T18:36:33.388Z,6.80
2022-10-09T18:39:02.878Z,6.90
2022-10-09T18:41:30.998Z,6.70
2022-10-09T18:44:01.371Z,6.80
2022-10-09T18:46:33.052Z,6.80
2022-10-09T18:49:01.684Z,6.90
2022-10-09T18:51:30.235Z,7.00
2022-10-09T18:54:01.845Z,7.00
2022-10-09T18:56:32.652Z,7.20
2022-10-09T18:59:04.795Z,7.30
2022-10-09T19:01:32.837Z,7.30
2022-10-09T19:04:01.010Z,7.50
2022-10-09T19:06:29.586Z,7.60
2022-10-09T19:09:00.681Z,7.70
2022-10-09T19:11:29.807Z,7.80
2022-10-09T19:13:59.659Z,7.60
2022-10-09T19:16:29.712Z,7.50
2022-10-09T19:18:57.793Z,7.50
2022-10-09T19:21:25.987Z,7.30
2022-10-09T19:23:54.760Z,7.40
2022-10-09T19:26:24.284Z,7.40
2022-10-09T19:28:52.259Z,7.50
2022-10-09T19:31:20.285Z,7.60
2022-10-09T19:33:49.594Z,7.70
2022-10-09T19:36:18.265Z,7.80
2022-10-09T19:38:46.735Z,7.70
2022-10-09T19:41:16.610Z,7.80
2022-10-09T19:43:44.874Z,7.70
2022-10-09T19:46:14.802Z,7.70
2022-10-09T19:48:42.983Z,7.70
2022-10-09T19:51:14.204Z,7.60
2022-10-09T19:53:43.369Z,7.60
2022-10-09T19:56:12.707Z,7.60
2022-10-09T19:58:41.865Z,7.60
2022-10-09T20:01:11.167Z,7.50
2022-10-09T20:03:39.498Z,7.50
2022-10-09T20:06:09.419Z,7.30
2022-10-09T20:08:39.993Z,7.30
2022-10-09T20:11:08.683Z,7.20
2022-10-09T20:13:38.631Z,7.20
2022-10-09T20:16:10.171Z,7.20
2022-10-09T20:18:42.208Z,7.20
2022-10-09T20:21:11.608Z,7.20
2022-10-09T20:23:41.024Z,7.20
2022-10-09T20:26:12.221Z,7.20
2022-10-09T20:28:40.651Z,7.10
2022-10-09T20:31:14.508Z,7.00
2022-10-09T20:33:43.446Z,7.00
2022-10-09T20:36:20.157Z,6.90
2022-10-09T20:38:49.687Z,7.00
2022-10-09T20:41:18.088Z,7.00
2022-10-09T20:43:46.295Z,7.00
2022-10-09T20:46:15.838Z,7.00
2022-10-09T20:48:44.763Z,6.90
2022-10-09T20:51:12.691Z,6.90
2022-10-09T20:53:41.183Z,6.90
2022-10-09T20:56:13.039Z,6.80
2022-10-09T20:58:41.652Z,6.70
2022-10-09T21:01:12.391Z,6.70
2022-10-09T21:03:40.551Z,6.60
2022-10-09T21:06:11.250Z,6.50
2022-10-09T21:08:39.931Z,6.60
2022-10-09T21:11:11.157Z,6.50
2022-10-09T21:13:41.611Z,6.60
2022-10-09T21:16:12.652Z,6.60
2022-10-09T21:18:41.214Z,6.50
2022-10-09T21:21:12.473Z,6.50
2022-10-09T21:23:40.527Z,6.50
2022-10-09T21:26:14.083Z,6.40
2022-10-09T21:28:42.474Z,6.30
2022-10-09T21:31:11.751Z,6.30
2022-10-09T21:33:39.684Z,6.30
2022-10-09T21:36:11.715Z,6.30
2022-10-09T21:38:39.845Z,6.30
2022-10-09T21:41:07.825Z,6.30
2022-10-09T21:43:37.243Z,6.40
2022-10-09T21:46:05.365Z,6.40
2022-10-09T21:48:33.320Z,6.40
2022-10-09T21:51:01.279Z,6.30
2022-10-09T21:53:29.255Z,6.30
2022-10-09T21:55:57.221Z,6.30
2022-10-09T21:58:25.199Z,6.30
2022-10-09T22:00:58.832Z,6.30
2022-10-09T22:03:27.339Z,6.20
2022-10-09T22:05:55.738Z,6.20
2022-10-09T22:08:24.607Z,6.10
2022-10-09T22:10:52.574Z,6.10
2022-10-09T22:13:21.659Z,6.00
2022-10-09T22:15:51.351Z,6.00
2022-10-09T22:18:21.116Z,5.90
2022-10-09T22:20:51.232Z,5.90
2022-10-09T22:23:21.075Z,5.90
2022-10-09T22:25:57.790Z,5.70
2022-10-09T22:28:25.831Z,5.50
2022-10-09T22:31:02.801Z,5.40
2022-10-09T22:33:32.387Z,5.30
2022-10-09T22:36:05.779Z,5.20
2022-10-09T22:38:34.188Z,5.30
2022-10-09T22:41:07.279Z,5.20
2022-10-09T22:43:35.403Z,5.30
2022-10-09T22:46:07.121Z,5.00
2022-10-09T22:48:36.841Z,4.90
2022-10-09T22:51:06.658Z,4.90
2022-10-09T22:53:36.906Z,4.90
2022-10-09T22:56:06.527Z,4.90
2022-10-09T22:58:34.825Z,4.80
2022-10-09T23:01:05.821Z,4.70
2022-10-09T23:03:33.940Z,4.70
2022-10-09T23:06:11.422Z,4.40
2022-10-09T23:08:40.487Z,4.40
2022-10-09T23:11:09.078Z,4.50
2022-10-09T23:13:37.867Z,4.60
2022-10-09T23:16:08.415Z,4.70
2022-10-09T23:18:37.243Z,4.70
2022-10-09T23:21:06.265Z,4.80
2022-10-09T23:23:35.951Z,4.80
2022-10-09T23:26:05.240Z,4.80
2022-10-09T23:28:33.281Z,4.90
2022-10-09T23:31:04.767Z,4.60
2022-10-09T23:33:33.860Z,4.60
2022-10-09T23:36:03.087Z,4.60
2022-10-09T23:38:31.093Z,4.50
2022-10-09T23:41:02.261Z,4.50
2022-10-09T23:43:31.546Z,4.50
2022-10-09T23:46:01.870Z,4.50
2022-10-09T23:48:30.449Z,4.50
2022-10-09T23:50:58.763Z,4.40
2022-10-09T23:53:27.696Z,4.50
2022-10-09T23:55:55.923Z,4.40
2022-10-09T23:58:25.381Z,4.40
